sensor_id;sensor_type;location;lat;lon;timestamp;P1;durP1;ratioP1;P2;durP2;ratioP2
20000;SDS011;10161;41.188;-8.642;2023-03-31T00:00:25;78.70;;;10.50;;
20000;SDS011;10161;41.188;-8.642;2023-03-31T00:02:52;41.13;;;8.80;;
20000;SDS011;10161;41.188;-8.642;2023-03-31T00:05:20;50.17;;;8.90;;
20000;SDS011;10161;41.188;-8.642;2023-03-31T00:07:51;51.73;;;9.37;;
20000;SDS011;10161;41.188;-8.642;2023-03-31T00:10:19;40.67;;;8.60;;
20000;SDS011;10161;41.188;-8.642;2023-03-31T00:12:47;35.47;;;8.50;;
20000;SDS011;10161;41.188;-8.642;2023-03-31T00:15:14;27.30;;;5.90;;
20000;SDS011;10161;41.188;-8.642;2023-03-31T00:17:41;27.70;;;6.20;;
20000;SDS011;10161;41.188;-8.642;2023-03-31T00:20:08;33.80;;;7.13;;
20000;SDS011;10161;41.188;-8.642;2023-03-31T00:22:36;29.83;;;6.00;;
20000;SDS011;10161;41.188;-8.642;2023-03-31T00:25:07;31.80;;;6.47;;
20000;SDS011;10161;41.188;-8.642;2023-03-31T00:27:35;55.33;;;6.30;;
20000;SDS011;10161;41.188;-8.642;2023-03-31T00:30:04;49.37;;;7.20;;
20000;SDS011;10161;41.188;-8.642;2023-03-31T00:32:31;44.57;;;7.00;;
20000;SDS011;10161;41.188;-8.642;2023-03-31T00:34:58;35.67;;;6.90;;
20000;SDS011;10161;41.188;-8.642;2023-03-31T00:37:26;32.67;;;7.20;;
20000;SDS011;10161;41.188;-8.642;2023-03-31T00:39:54;32.13;;;6.90;;
20000;SDS011;10161;41.188;-8.642;2023-03-31T00:42:21;37.17;;;7.40;;
20000;SDS011;10161;41.188;-8.642;2023-03-31T00:47:47;57.47;;;7.97;;
20000;SDS011;10161;41.188;-8.642;2023-03-31T00:50:18;61.10;;;7.03;;
20000;SDS011;10161;41.188;-8.642;2023-03-31T00:52:46;19.87;;;5.63;;
20000;SDS011;10161;41.188;-8.642;2023-03-31T00:55:16;40.50;;;7.07;;
20000;SDS011;10161;41.188;-8.642;2023-03-31T00:57:44;70.63;;;8.07;;
20000;SDS011;10161;41.188;-8.642;2023-03-31T01:00:12;95.17;;;8.97;;
20000;SDS011;10161;41.188;-8.642;2023-03-31T01:02:42;58.87;;;7.00;;
20000;SDS011;10161;41.188;-8.642;2023-03-31T01:05:15;41.37;;;7.20;;
20000;SDS011;10161;41.188;-8.642;2023-03-31T01:07:44;66.50;;;7.63;;
20000;SDS011;10161;41.188;-8.642;2023-03-31T01:10:11;37.70;;;7.50;;
20000;SDS011;10161;41.188;-8.642;2023-03-31T01:12:38;54.63;;;9.40;;
20000;SDS011;10161;41.188;-8.642;2023-03-31T01:15:07;44.13;;;7.07;;
20000;SDS011;10161;41.188;-8.642;2023-03-31T01:17:35;28.77;;;6.87;;
20000;SDS011;10161;41.188;-8.642;2023-03-31T01:20:07;27.13;;;7.50;;
20000;SDS011;10161;41.188;-8.642;2023-03-31T01:22:52;33.00;;;7.13;;
20000;SDS011;10161;41.188;-8.642;2023-03-31T01:25:47;71.70;;;8.90;;
20000;SDS011;10161;41.188;-8.642;2023-03-31T01:28:27;55.70;;;7.97;;
20000;SDS011;10161;41.188;-8.642;2023-03-31T01:31:03;66.43;;;8.20;;
20000;SDS011;10161;41.188;-8.642;2023-03-31T01:33:57;71.73;;;7.60;;
20000;SDS011;10161;41.188;-8.642;2023-03-31T01:36:48;35.23;;;8.33;;
20000;SDS011;10161;41.188;-8.642;2023-03-31T01:39:50;32.90;;;8.10;;
20000;SDS011;10161;41.188;-8.642;2023-03-31T01:42:32;41.57;;;9.30;;
20000;SDS011;10161;41.188;-8.642;2023-03-31T01:45:01;51.63;;;10.23;;
20000;SDS011;10161;41.188;-8.642;2023-03-31T01:47:39;48.23;;;10.40;;
20000;SDS011;10161;41.188;-8.642;2023-03-31T01:50:10;69.03;;;10.23;;
20000;SDS011;10161;41.188;-8.642;2023-03-31T01:52:44;54.07;;;10.97;;
20000;SDS011;10161;41.188;-8.642;2023-03-31T01:55:17;61.83;;;10.90;;
20000;SDS011;10161;41.188;-8.642;2023-03-31T01:57:46;42.00;;;8.30;;
20000;SDS011;10161;41.188;-8.642;2023-03-31T02:00:16;37.03;;;8.30;;
20000;SDS011;10161;41.188;-8.642;2023-03-31T02:02:46;37.93;;;7.67;;
20000;SDS011;10161;41.188;-8.642;2023-03-31T02:05:16;42.07;;;8.60;;
20000;SDS011;10161;41.188;-8.642;2023-03-31T02:07:45;56.57;;;8.43;;
20000;SDS011;10161;41.188;-8.642;2023-03-31T02:10:15;34.03;;;8.13;;
20000;SDS011;10161;41.188;-8.642;2023-03-31T02:12:43;44.47;;;8.27;;
20000;SDS011;10161;41.188;-8.642;2023-03-31T02:15:12;37.80;;;7.47;;
20000;SDS011;10161;41.188;-8.642;2023-03-31T02:17:40;23.13;;;7.87;;
20000;SDS011;10161;41.188;-8.642;2023-03-31T02:20:10;31.03;;;6.77;;
20000;SDS011;10161;41.188;-8.642;2023-03-31T02:22:42;29.23;;;6.20;;
20000;SDS011;10161;41.188;-8.642;2023-03-31T02:25:11;32.60;;;7.17;;
20000;SDS011;10161;41.188;-8.642;2023-03-31T02:27:43;31.80;;;7.00;;
20000;SDS011;10161;41.188;-8.642;2023-03-31T02:30:12;33.60;;;7.67;;
20000;SDS011;10161;41.188;-8.642;2023-03-31T02:32:40;34.60;;;7.60;;
20000;SDS011;10161;41.188;-8.642;2023-03-31T02:35:09;39.70;;;7.70;;
20000;SDS011;10161;41.188;-8.642;2023-03-31T02:37:38;35.87;;;7.80;;
20000;SDS011;10161;41.188;-8.642;2023-03-31T02:40:07;41.30;;;8.43;;
20000;SDS011;10161;41.188;-8.642;2023-03-31T02:42:36;40.97;;;9.17;;
20000;SDS011;10161;41.188;-8.642;2023-03-31T02:45:05;34.97;;;7.87;;
20000;SDS011;10161;41.188;-8.642;2023-03-31T02:47:33;33.80;;;7.23;;
20000;SDS011;10161;41.188;-8.642;2023-03-31T02:50:00;44.33;;;8.50;;
20000;SDS011;10161;41.188;-8.642;2023-03-31T02:55:27;36.50;;;7.70;;
20000;SDS011;10161;41.188;-8.642;2023-03-31T02:58:27;26.80;;;7.60;;
20000;SDS011;10161;41.188;-8.642;2023-03-31T03:01:04;31.67;;;7.73;;
20000;SDS011;10161;41.188;-8.642;2023-03-31T03:03:38;28.80;;;7.00;;
20000;SDS011;10161;41.188;-8.642;2023-03-31T03:06:13;37.03;;;7.87;;
20000;SDS011;10161;41.188;-8.642;2023-03-31T03:08:51;42.27;;;8.00;;
20000;SDS011;10161;41.188;-8.642;2023-03-31T03:11:29;41.90;;;9.17;;
20000;SDS011;10161;41.188;-8.642;2023-03-31T03:14:01;54.23;;;8.90;;
20000;SDS011;10161;41.188;-8.642;2023-03-31T03:16:32;61.60;;;11.23;;
20000;SDS011;10161;41.188;-8.642;2023-03-31T03:19:05;55.53;;;9.90;;
20000;SDS011;10161;41.188;-8.642;2023-03-31T03:21:32;62.13;;;12.80;;
20000;SDS011;10161;41.188;-8.642;2023-03-31T03:24:00;52.80;;;10.50;;
20000;SDS011;10161;41.188;-8.642;2023-03-31T03:26:28;50.47;;;11.23;;
20000;SDS011;10161;41.188;-8.642;2023-03-31T03:28:59;86.43;;;12.90;;
20000;SDS011;10161;41.188;-8.642;2023-03-31T03:31:26;69.77;;;12.33;;
20000;SDS011;10161;41.188;-8.642;2023-03-31T03:33:54;59.47;;;10.53;;
20000;SDS011;10161;41.188;-8.642;2023-03-31T03:36:21;52.27;;;11.10;;
20000;SDS011;10161;41.188;-8.642;2023-03-31T03:38:48;68.63;;;12.73;;
20000;SDS011;10161;41.188;-8.642;2023-03-31T03:41:15;54.03;;;11.63;;
20000;SDS011;10161;41.188;-8.642;2023-03-31T03:43:42;57.93;;;11.17;;
20000;SDS011;10161;41.188;-8.642;2023-03-31T03:46:09;45.13;;;9.33;;
20000;SDS011;10161;41.188;-8.642;2023-03-31T03:48:36;61.67;;;10.63;;
20000;SDS011;10161;41.188;-8.642;2023-03-31T03:51:04;59.47;;;11.43;;
20000;SDS011;10161;41.188;-8.642;2023-03-31T03:53:31;60.43;;;11.23;;
20000;SDS011;10161;41.188;-8.642;2023-03-31T03:55:58;49.07;;;10.10;;
20000;SDS011;10161;41.188;-8.642;2023-03-31T03:58:25;43.93;;;9.47;;
20000;SDS011;10161;41.188;-8.642;2023-03-31T04:00:52;60.37;;;9.37;;
20000;SDS011;10161;41.188;-8.642;2023-03-31T04:03:21;43.90;;;8.60;;
20000;SDS011;10161;41.188;-8.642;2023-03-31T04:05:48;57.23;;;10.77;;
20000;SDS011;10161;41.188;-8.642;2023-03-31T04:08:17;56.73;;;10.80;;
20000;SDS011;10161;41.188;-8.642;2023-03-31T04:10:44;65.23;;;9.97;;
20000;SDS011;10161;41.188;-8.642;2023-03-31T04:13:13;56.80;;;10.83;;
20000;SDS011;10161;41.188;-8.642;2023-03-31T04:15:40;64.63;;;11.30;;
20000;SDS011;10161;41.188;-8.642;2023-03-31T04:18:07;56.93;;;10.00;;
20000;SDS011;10161;41.188;-8.642;2023-03-31T04:20:35;53.90;;;10.73;;
20000;SDS011;10161;41.188;-8.642;2023-03-31T04:23:02;63.73;;;11.10;;
20000;SDS011;10161;41.188;-8.642;2023-03-31T04:25:31;57.83;;;12.50;;
20000;SDS011;10161;41.188;-8.642;2023-03-31T04:28:02;60.67;;;10.80;;
20000;SDS011;10161;41.188;-8.642;2023-03-31T04:30:32;66.83;;;12.20;;
20000;SDS011;10161;41.188;-8.642;2023-03-31T04:33:05;66.97;;;12.33;;
20000;SDS011;10161;41.188;-8.642;2023-03-31T04:35:32;54.60;;;10.67;;
20000;SDS011;10161;41.188;-8.642;2023-03-31T04:38:13;51.10;;;11.53;;
20000;SDS011;10161;41.188;-8.642;2023-03-31T04:40:44;43.27;;;9.70;;
20000;SDS011;10161;41.188;-8.642;2023-03-31T04:43:12;56.30;;;9.77;;
20000;SDS011;10161;41.188;-8.642;2023-03-31T04:45:40;55.93;;;9.80;;
20000;SDS011;10161;41.188;-8.642;2023-03-31T04:48:08;59.50;;;11.23;;
20000;SDS011;10161;41.188;-8.642;2023-03-31T04:50:36;53.93;;;11.33;;
20000;SDS011;10161;41.188;-8.642;2023-03-31T04:53:03;56.50;;;11.77;;
20000;SDS011;10161;41.188;-8.642;2023-03-31T04:55:32;71.33;;;11.97;;
20000;SDS011;10161;41.188;-8.642;2023-03-31T04:58:00;72.97;;;12.43;;
20000;SDS011;10161;41.188;-8.642;2023-03-31T05:00:27;56.83;;;11.17;;
20000;SDS011;10161;41.188;-8.642;2023-03-31T05:02:54;55.33;;;11.10;;
20000;SDS011;10161;41.188;-8.642;2023-03-31T05:05:21;54.47;;;11.17;;
20000;SDS011;10161;41.188;-8.642;2023-03-31T05:07:48;57.87;;;10.80;;
20000;SDS011;10161;41.188;-8.642;2023-03-31T05:10:15;51.33;;;11.37;;
20000;SDS011;10161;41.188;-8.642;2023-03-31T05:12:42;64.97;;;10.70;;
20000;SDS011;10161;41.188;-8.642;2023-03-31T05:15:12;65.10;;;11.60;;
20000;SDS011;10161;41.188;-8.642;2023-03-31T05:17:39;57.90;;;11.23;;
20000;SDS011;10161;41.188;-8.642;2023-03-31T05:20:07;62.40;;;13.50;;
20000;SDS011;10161;41.188;-8.642;2023-03-31T05:22:36;59.47;;;11.67;;
20000;SDS011;10161;41.188;-8.642;2023-03-31T05:25:05;48.43;;;11.63;;
20000;SDS011;10161;41.188;-8.642;2023-03-31T05:27:33;53.83;;;11.50;;
20000;SDS011;10161;41.188;-8.642;2023-03-31T05:30:01;55.37;;;11.07;;
20000;SDS011;10161;41.188;-8.642;2023-03-31T05:32:29;52.03;;;11.30;;
20000;SDS011;10161;41.188;-8.642;2023-03-31T05:34:56;52.57;;;10.87;;
20000;SDS011;10161;41.188;-8.642;2023-03-31T05:37:23;55.90;;;11.27;;
20000;SDS011;10161;41.188;-8.642;2023-03-31T05:39:51;48.90;;;11.33;;
20000;SDS011;10161;41.188;-8.642;2023-03-31T05:42:19;61.93;;;12.90;;
20000;SDS011;10161;41.188;-8.642;2023-03-31T05:44:46;59.17;;;12.40;;
20000;SDS011;10161;41.188;-8.642;2023-03-31T05:47:13;54.53;;;13.00;;
20000;SDS011;10161;41.188;-8.642;2023-03-31T05:49:42;68.13;;;12.07;;
20000;SDS011;10161;41.188;-8.642;2023-03-31T05:52:09;63.97;;;13.73;;
20000;SDS011;10161;41.188;-8.642;2023-03-31T05:54:37;53.40;;;12.43;;
20000;SDS011;10161;41.188;-8.642;2023-03-31T05:57:04;59.60;;;12.23;;
20000;SDS011;10161;41.188;-8.642;2023-03-31T05:59:31;52.50;;;10.90;;
20000;SDS011;10161;41.188;-8.642;2023-03-31T06:02:00;40.23;;;10.50;;
20000;SDS011;10161;41.188;-8.642;2023-03-31T06:04:27;61.23;;;12.23;;
20000;SDS011;10161;41.188;-8.642;2023-03-31T06:06:57;54.87;;;12.50;;
20000;SDS011;10161;41.188;-8.642;2023-03-31T06:09:24;66.67;;;13.33;;
20000;SDS011;10161;41.188;-8.642;2023-03-31T06:11:51;52.67;;;10.40;;
20000;SDS011;10161;41.188;-8.642;2023-03-31T06:14:18;61.80;;;12.40;;
20000;SDS011;10161;41.188;-8.642;2023-03-31T06:16:45;63.50;;;11.90;;
20000;SDS011;10161;41.188;-8.642;2023-03-31T06:19:13;54.23;;;12.00;;
20000;SDS011;10161;41.188;-8.642;2023-03-31T06:21:41;60.40;;;12.83;;
20000;SDS011;10161;41.188;-8.642;2023-03-31T06:24:09;50.70;;;12.60;;
20000;SDS011;10161;41.188;-8.642;2023-03-31T06:26:37;65.43;;;13.20;;
20000;SDS011;10161;41.188;-8.642;2023-03-31T06:29:03;55.77;;;13.03;;
20000;SDS011;10161;41.188;-8.642;2023-03-31T06:31:30;67.73;;;11.70;;
20000;SDS011;10161;41.188;-8.642;2023-03-31T06:33:57;72.80;;;13.50;;
20000;SDS011;10161;41.188;-8.642;2023-03-31T06:36:25;59.60;;;12.60;;
20000;SDS011;10161;41.188;-8.642;2023-03-31T06:38:52;54.93;;;13.77;;
20000;SDS011;10161;41.188;-8.642;2023-03-31T06:41:22;58.77;;;13.13;;
20000;SDS011;10161;41.188;-8.642;2023-03-31T06:43:49;62.60;;;13.17;;
20000;SDS011;10161;41.188;-8.642;2023-03-31T06:46:16;66.63;;;13.70;;
20000;SDS011;10161;41.188;-8.642;2023-03-31T06:48:43;77.97;;;12.90;;
20000;SDS011;10161;41.188;-8.642;2023-03-31T06:51:10;72.83;;;14.07;;
20000;SDS011;10161;41.188;-8.642;2023-03-31T06:53:37;63.03;;;13.27;;
20000;SDS011;10161;41.188;-8.642;2023-03-31T06:56:05;50.60;;;12.03;;
20000;SDS011;10161;41.188;-8.642;2023-03-31T06:58:34;43.43;;;10.53;;
20000;SDS011;10161;41.188;-8.642;2023-03-31T07:01:01;56.03;;;12.77;;
20000;SDS011;10161;41.188;-8.642;2023-03-31T07:03:29;55.70;;;10.83;;
20000;SDS011;10161;41.188;-8.642;2023-03-31T07:05:56;43.47;;;10.83;;
20000;SDS011;10161;41.188;-8.642;2023-03-31T07:08:24;51.73;;;10.97;;
20000;SDS011;10161;41.188;-8.642;2023-03-31T07:10:52;45.00;;;8.97;;
20000;SDS011;10161;41.188;-8.642;2023-03-31T07:13:22;43.90;;;10.23;;
20000;SDS011;10161;41.188;-8.642;2023-03-31T07:15:50;45.10;;;10.00;;
20000;SDS011;10161;41.188;-8.642;2023-03-31T07:18:17;43.93;;;9.50;;
20000;SDS011;10161;41.188;-8.642;2023-03-31T07:20:46;37.53;;;9.83;;
20000;SDS011;10161;41.188;-8.642;2023-03-31T07:23:14;35.80;;;8.57;;
20000;SDS011;10161;41.188;-8.642;2023-03-31T07:25:42;46.93;;;10.30;;
20000;SDS011;10161;41.188;-8.642;2023-03-31T07:28:09;42.23;;;9.20;;
20000;SDS011;10161;41.188;-8.642;2023-03-31T07:30:37;43.63;;;9.43;;
20000;SDS011;10161;41.188;-8.642;2023-03-31T07:33:05;35.67;;;10.03;;
20000;SDS011;10161;41.188;-8.642;2023-03-31T07:35:32;28.50;;;8.50;;
20000;SDS011;10161;41.188;-8.642;2023-03-31T07:38:00;43.80;;;10.37;;
20000;SDS011;10161;41.188;-8.642;2023-03-31T07:40:28;42.60;;;10.00;;
20000;SDS011;10161;41.188;-8.642;2023-03-31T07:42:55;35.43;;;9.00;;
20000;SDS011;10161;41.188;-8.642;2023-03-31T07:45:23;39.80;;;8.97;;
20000;SDS011;10161;41.188;-8.642;2023-03-31T07:47:52;39.30;;;8.90;;
20000;SDS011;10161;41.188;-8.642;2023-03-31T07:50:21;38.63;;;8.60;;
20000;SDS011;10161;41.188;-8.642;2023-03-31T07:52:50;34.87;;;7.80;;
20000;SDS011;10161;41.188;-8.642;2023-03-31T07:55:17;39.30;;;10.00;;
20000;SDS011;10161;41.188;-8.642;2023-03-31T07:57:45;38.47;;;9.40;;
20000;SDS011;10161;41.188;-8.642;2023-03-31T08:00:12;51.13;;;11.00;;
20000;SDS011;10161;41.188;-8.642;2023-03-31T08:02:41;45.27;;;9.77;;
20000;SDS011;10161;41.188;-8.642;2023-03-31T08:05:09;49.50;;;10.90;;
20000;SDS011;10161;41.188;-8.642;2023-03-31T08:07:38;46.03;;;10.33;;
20000;SDS011;10161;41.188;-8.642;2023-03-31T08:10:07;40.43;;;9.57;;
20000;SDS011;10161;41.188;-8.642;2023-03-31T08:12:36;39.37;;;9.87;;
20000;SDS011;10161;41.188;-8.642;2023-03-31T08:15:03;48.43;;;11.77;;
20000;SDS011;10161;41.188;-8.642;2023-03-31T08:17:31;43.47;;;9.90;;
20000;SDS011;10161;41.188;-8.642;2023-03-31T08:19:58;41.00;;;9.77;;
20000;SDS011;10161;41.188;-8.642;2023-03-31T08:22:26;38.30;;;10.30;;
20000;SDS011;10161;41.188;-8.642;2023-03-31T08:24:54;52.17;;;10.63;;
20000;SDS011;10161;41.188;-8.642;2023-03-31T08:27:21;39.70;;;10.43;;
20000;SDS011;10161;41.188;-8.642;2023-03-31T08:29:51;49.70;;;10.37;;
20000;SDS011;10161;41.188;-8.642;2023-03-31T08:32:20;48.37;;;10.77;;
20000;SDS011;10161;41.188;-8.642;2023-03-31T08:34:48;37.83;;;9.57;;
20000;SDS011;10161;41.188;-8.642;2023-03-31T08:37:15;40.50;;;10.13;;
20000;SDS011;10161;41.188;-8.642;2023-03-31T08:39:43;37.23;;;9.63;;
20000;SDS011;10161;41.188;-8.642;2023-03-31T08:42:12;34.63;;;9.90;;
20000;SDS011;10161;41.188;-8.642;2023-03-31T08:44:43;43.00;;;10.07;;
20000;SDS011;10161;41.188;-8.642;2023-03-31T08:47:14;47.30;;;11.63;;
20000;SDS011;10161;41.188;-8.642;2023-03-31T08:49:43;35.60;;;10.10;;
20000;SDS011;10161;41.188;-8.642;2023-03-31T08:52:13;41.43;;;10.43;;
20000;SDS011;10161;41.188;-8.642;2023-03-31T08:54:42;38.03;;;10.20;;
20000;SDS011;10161;41.188;-8.642;2023-03-31T08:57:13;41.50;;;10.00;;
20000;SDS011;10161;41.188;-8.642;2023-03-31T08:59:41;41.87;;;10.47;;
20000;SDS011;10161;41.188;-8.642;2023-03-31T09:02:11;39.90;;;9.93;;
20000;SDS011;10161;41.188;-8.642;2023-03-31T09:04:58;48.83;;;11.47;;
20000;SDS011;10161;41.188;-8.642;2023-03-31T09:07:49;40.43;;;9.93;;
20000;SDS011;10161;41.188;-8.642;2023-03-31T09:13:27;53.90;;;11.10;;
20000;SDS011;10161;41.188;-8.642;2023-03-31T09:16:03;43.03;;;9.87;;
20000;SDS011;10161;41.188;-8.642;2023-03-31T09:18:39;44.67;;;10.50;;
20000;SDS011;10161;41.188;-8.642;2023-03-31T09:21:25;57.97;;;11.90;;
20000;SDS011;10161;41.188;-8.642;2023-03-31T09:23:55;52.93;;;10.67;;
20000;SDS011;10161;41.188;-8.642;2023-03-31T09:26:32;55.23;;;11.40;;
20000;SDS011;10161;41.188;-8.642;2023-03-31T09:29:05;40.53;;;11.10;;
20000;SDS011;10161;41.188;-8.642;2023-03-31T09:31:36;45.07;;;10.50;;
20000;SDS011;10161;41.188;-8.642;2023-03-31T09:34:09;49.80;;;10.53;;
20000;SDS011;10161;41.188;-8.642;2023-03-31T09:36:39;53.70;;;11.87;;
20000;SDS011;10161;41.188;-8.642;2023-03-31T09:39:07;46.23;;;12.30;;
20000;SDS011;10161;41.188;-8.642;2023-03-31T09:41:39;42.20;;;10.40;;
20000;SDS011;10161;41.188;-8.642;2023-03-31T09:46:54;46.90;;;11.13;;
20000;SDS011;10161;41.188;-8.642;2023-03-31T09:49:22;48.03;;;11.13;;
20000;SDS011;10161;41.188;-8.642;2023-03-31T09:51:52;44.60;;;10.33;;
20000;SDS011;10161;41.188;-8.642;2023-03-31T09:54:34;46.63;;;10.20;;
20000;SDS011;10161;41.188;-8.642;2023-03-31T09:57:05;32.63;;;8.90;;
20000;SDS011;10161;41.188;-8.642;2023-03-31T09:59:41;44.47;;;9.93;;
20000;SDS011;10161;41.188;-8.642;2023-03-31T10:05:04;43.83;;;10.20;;
20000;SDS011;10161;41.188;-8.642;2023-03-31T10:07:32;49.70;;;11.67;;
20000;SDS011;10161;41.188;-8.642;2023-03-31T10:10:02;41.03;;;10.43;;
20000;SDS011;10161;41.188;-8.642;2023-03-31T10:12:29;42.73;;;9.60;;
20000;SDS011;10161;41.188;-8.642;2023-03-31T10:15:13;48.07;;;10.00;;
20000;SDS011;10161;41.188;-8.642;2023-03-31T10:17:56;38.03;;;9.63;;
20000;SDS011;10161;41.188;-8.642;2023-03-31T10:20:29;45.90;;;9.13;;
20000;SDS011;10161;41.188;-8.642;2023-03-31T10:23:01;46.07;;;10.80;;
20000;SDS011;10161;41.188;-8.642;2023-03-31T10:25:30;37.10;;;9.30;;
20000;SDS011;10161;41.188;-8.642;2023-03-31T10:27:59;34.17;;;8.97;;
20000;SDS011;10161;41.188;-8.642;2023-03-31T10:30:29;41.43;;;9.63;;
20000;SDS011;10161;41.188;-8.642;2023-03-31T10:33:04;36.77;;;10.00;;
20000;SDS011;10161;41.188;-8.642;2023-03-31T10:35:32;44.63;;;10.90;;
20000;SDS011;10161;41.188;-8.642;2023-03-31T10:38:02;52.67;;;11.00;;
20000;SDS011;10161;41.188;-8.642;2023-03-31T10:40:31;50.90;;;9.93;;
20000;SDS011;10161;41.188;-8.642;2023-03-31T10:43:03;36.90;;;8.87;;
20000;SDS011;10161;41.188;-8.642;2023-03-31T10:45:40;37.10;;;9.07;;
20000;SDS011;10161;41.188;-8.642;2023-03-31T10:48:17;37.90;;;9.53;;
20000;SDS011;10161;41.188;-8.642;2023-03-31T10:50:47;35.17;;;9.70;;
20000;SDS011;10161;41.188;-8.642;2023-03-31T10:53:15;35.47;;;10.00;;
20000;SDS011;10161;41.188;-8.642;2023-03-31T10:55:45;32.07;;;8.87;;
20000;SDS011;10161;41.188;-8.642;2023-03-31T10:58:21;41.77;;;9.60;;
20000;SDS011;10161;41.188;-8.642;2023-03-31T11:01:02;35.77;;;9.70;;
20000;SDS011;10161;41.188;-8.642;2023-03-31T11:03:41;47.33;;;11.53;;
20000;SDS011;10161;41.188;-8.642;2023-03-31T11:06:21;38.13;;;9.13;;
20000;SDS011;10161;41.188;-8.642;2023-03-31T11:09:02;40.83;;;9.63;;
20000;SDS011;10161;41.188;-8.642;2023-03-31T11:11:42;38.30;;;10.17;;
20000;SDS011;10161;41.188;-8.642;2023-03-31T11:14:19;31.13;;;7.80;;
20000;SDS011;10161;41.188;-8.642;2023-03-31T11:16:57;37.23;;;8.70;;
20000;SDS011;10161;41.188;-8.642;2023-03-31T11:19:29;38.37;;;10.07;;
20000;SDS011;10161;41.188;-8.642;2023-03-31T11:22:04;52.43;;;9.93;;
20000;SDS011;10161;41.188;-8.642;2023-03-31T11:24:37;40.43;;;9.53;;
20000;SDS011;10161;41.188;-8.642;2023-03-31T11:27:27;38.43;;;9.30;;
20000;SDS011;10161;41.188;-8.642;2023-03-31T11:30:01;41.03;;;10.73;;
20000;SDS011;10161;41.188;-8.642;2023-03-31T11:32:35;41.43;;;8.90;;
20000;SDS011;10161;41.188;-8.642;2023-03-31T11:35:11;39.50;;;9.63;;
20000;SDS011;10161;41.188;-8.642;2023-03-31T11:37:48;34.20;;;9.10;;
20000;SDS011;10161;41.188;-8.642;2023-03-31T11:40:34;48.03;;;11.33;;
20000;SDS011;10161;41.188;-8.642;2023-03-31T11:43:06;52.00;;;10.60;;
20000;SDS011;10161;41.188;-8.642;2023-03-31T11:45:38;45.37;;;10.93;;
20000;SDS011;10161;41.188;-8.642;2023-03-31T11:48:13;45.67;;;10.40;;
20000;SDS011;10161;41.188;-8.642;2023-03-31T11:50:43;41.83;;;9.50;;
20000;SDS011;10161;41.188;-8.642;2023-03-31T11:53:13;32.97;;;9.60;;
20000;SDS011;10161;41.188;-8.642;2023-03-31T11:55:42;38.30;;;10.97;;
20000;SDS011;10161;41.188;-8.642;2023-03-31T11:58:10;38.93;;;10.03;;
20000;SDS011;10161;41.188;-8.642;2023-03-31T12:00:39;44.07;;;10.30;;
20000;SDS011;10161;41.188;-8.642;2023-03-31T12:03:10;41.57;;;8.87;;
20000;SDS011;10161;41.188;-8.642;2023-03-31T12:05:40;43.00;;;10.10;;
20000;SDS011;10161;41.188;-8.642;2023-03-31T12:08:10;31.40;;;9.70;;
20000;SDS011;10161;41.188;-8.642;2023-03-31T12:10:42;34.07;;;8.93;;
20000;SDS011;10161;41.188;-8.642;2023-03-31T12:13:19;44.70;;;9.97;;
20000;SDS011;10161;41.188;-8.642;2023-03-31T12:16:00;43.77;;;9.77;;
20000;SDS011;10161;41.188;-8.642;2023-03-31T12:18:32;39.77;;;10.07;;
20000;SDS011;10161;41.188;-8.642;2023-03-31T12:21:02;39.47;;;9.93;;
20000;SDS011;10161;41.188;-8.642;2023-03-31T12:23:32;44.67;;;8.90;;
20000;SDS011;10161;41.188;-8.642;2023-03-31T12:26:02;44.93;;;9.27;;
20000;SDS011;10161;41.188;-8.642;2023-03-31T12:28:32;50.90;;;10.30;;
20000;SDS011;10161;41.188;-8.642;2023-03-31T12:31:01;39.20;;;9.87;;
20000;SDS011;10161;41.188;-8.642;2023-03-31T12:33:29;44.83;;;10.30;;
20000;SDS011;10161;41.188;-8.642;2023-03-31T12:36:02;43.17;;;9.93;;
20000;SDS011;10161;41.188;-8.642;2023-03-31T12:38:41;51.80;;;9.50;;
20000;SDS011;10161;41.188;-8.642;2023-03-31T12:41:17;40.37;;;9.20;;
20000;SDS011;10161;41.188;-8.642;2023-03-31T12:44:05;47.03;;;10.00;;
20000;SDS011;10161;41.188;-8.642;2023-03-31T12:46:46;34.90;;;8.37;;
20000;SDS011;10161;41.188;-8.642;2023-03-31T12:49:24;37.30;;;9.20;;
20000;SDS011;10161;41.188;-8.642;2023-03-31T12:52:00;51.57;;;11.03;;
20000;SDS011;10161;41.188;-8.642;2023-03-31T12:54:32;35.90;;;9.23;;
20000;SDS011;10161;41.188;-8.642;2023-03-31T12:57:14;41.80;;;9.57;;
20000;SDS011;10161;41.188;-8.642;2023-03-31T12:59:45;38.80;;;8.60;;
20000;SDS011;10161;41.188;-8.642;2023-03-31T13:02:38;39.57;;;9.87;;
20000;SDS011;10161;41.188;-8.642;2023-03-31T13:08:12;41.10;;;9.27;;
20000;SDS011;10161;41.188;-8.642;2023-03-31T13:11:21;49.00;;;9.03;;
20000;SDS011;10161;41.188;-8.642;2023-03-31T13:14:05;43.80;;;9.90;;
20000;SDS011;10161;41.188;-8.642;2023-03-31T13:16:38;38.57;;;9.00;;
20000;SDS011;10161;41.188;-8.642;2023-03-31T13:19:05;51.53;;;9.93;;
20000;SDS011;10161;41.188;-8.642;2023-03-31T13:21:42;38.40;;;9.50;;
20000;SDS011;10161;41.188;-8.642;2023-03-31T13:24:21;29.83;;;8.53;;
20000;SDS011;10161;41.188;-8.642;2023-03-31T13:26:49;34.13;;;8.63;;
20000;SDS011;10161;41.188;-8.642;2023-03-31T13:29:23;32.30;;;9.53;;
20000;SDS011;10161;41.188;-8.642;2023-03-31T13:34:46;46.17;;;10.67;;
20000;SDS011;10161;41.188;-8.642;2023-03-31T13:37:18;42.07;;;9.87;;
20000;SDS011;10161;41.188;-8.642;2023-03-31T13:40:07;42.70;;;8.40;;
20000;SDS011;10161;41.188;-8.642;2023-03-31T13:45:46;34.73;;;9.43;;
20000;SDS011;10161;41.188;-8.642;2023-03-31T13:48:23;37.30;;;9.00;;
20000;SDS011;10161;41.188;-8.642;2023-03-31T13:50:59;37.93;;;9.37;;
20000;SDS011;10161;41.188;-8.642;2023-03-31T13:53:59;39.10;;;9.23;;
20000;SDS011;10161;41.188;-8.642;2023-03-31T13:56:35;38.07;;;9.33;;
20000;SDS011;10161;41.188;-8.642;2023-03-31T14:05:04;43.07;;;9.30;;
20000;SDS011;10161;41.188;-8.642;2023-03-31T14:07:37;42.80;;;8.90;;
20000;SDS011;10161;41.188;-8.642;2023-03-31T14:10:14;34.73;;;8.70;;
20000;SDS011;10161;41.188;-8.642;2023-03-31T14:12:49;40.30;;;10.00;;
20000;SDS011;10161;41.188;-8.642;2023-03-31T14:15:17;35.17;;;9.10;;
20000;SDS011;10161;41.188;-8.642;2023-03-31T14:17:46;41.03;;;9.30;;
20000;SDS011;10161;41.188;-8.642;2023-03-31T14:20:19;35.00;;;9.20;;
20000;SDS011;10161;41.188;-8.642;2023-03-31T14:22:54;31.10;;;8.73;;
20000;SDS011;10161;41.188;-8.642;2023-03-31T14:25:31;37.50;;;10.37;;
20000;SDS011;10161;41.188;-8.642;2023-03-31T14:28:06;40.13;;;9.30;;
20000;SDS011;10161;41.188;-8.642;2023-03-31T14:30:46;38.87;;;9.00;;
20000;SDS011;10161;41.188;-8.642;2023-03-31T14:33:25;41.77;;;9.90;;
20000;SDS011;10161;41.188;-8.642;2023-03-31T14:35:59;37.97;;;8.07;;
20000;SDS011;10161;41.188;-8.642;2023-03-31T14:38:33;36.17;;;8.43;;
20000;SDS011;10161;41.188;-8.642;2023-03-31T14:41:01;34.93;;;9.17;;
20000;SDS011;10161;41.188;-8.642;2023-03-31T14:43:31;33.17;;;7.77;;
20000;SDS011;10161;41.188;-8.642;2023-03-31T14:45:59;34.30;;;9.53;;
20000;SDS011;10161;41.188;-8.642;2023-03-31T14:48:27;41.77;;;9.07;;
20000;SDS011;10161;41.188;-8.642;2023-03-31T14:50:55;36.43;;;9.30;;
20000;SDS011;10161;41.188;-8.642;2023-03-31T14:53:23;49.90;;;9.77;;
20000;SDS011;10161;41.188;-8.642;2023-03-31T14:55:52;44.03;;;11.07;;
20000;SDS011;10161;41.188;-8.642;2023-03-31T14:58:25;38.60;;;8.23;;
20000;SDS011;10161;41.188;-8.642;2023-03-31T15:00:59;36.00;;;9.23;;
20000;SDS011;10161;41.188;-8.642;2023-03-31T15:03:26;32.53;;;8.37;;
20000;SDS011;10161;41.188;-8.642;2023-03-31T15:05:55;32.47;;;9.00;;
20000;SDS011;10161;41.188;-8.642;2023-03-31T15:08:23;37.33;;;7.50;;